Time;durP1;ratioP1;P1;durP2;ratioP2;P2;SDS_P1;SDS_P2;PMS_P1;PMS_P2;Temp;Humidity;BMP_temperature;BMP_pressure;BME280_temperature;BME280_humidity;BME280_pressure;Samples;Min_cycle;Max_cycle;Signal;HPM_P1;HPM_P2
2022/10/06 00:00:43;;;;;;;26.97;12.58;;;;;;;10.24;100.00;100827.55;1740750;82;22279;-67
2022/10/06 00:03:09;;;;;;;23.07;13.43;;;;;;;10.23;100.00;100831.92;1740514;82;21099;-66
2022/10/06 00:05:36;;;;;;;17.52;11.57;;;;;;;10.23;100.00;100825.80;1745842;82;21060;-66
2022/10/06 00:08:03;;;;;;;22.58;11.00;;;;;;;10.24;100.00;100824.91;1745800;82;21041;-66
2022/10/06 00:10:30;;;;;;;23.50;11.38;;;;;;;10.23;100.00;100823.16;1772605;80;21033;-67
2022/10/06 00:12:57;;;;;;;21.77;10.48;;;;;;;10.21;100.00;100824.50;1776662;80;21212;-67
2022/10/06 00:15:28;;;;;;;19.52;10.98;;;;;;;10.21;100.00;100828.45;1777071;80;21052;-67
2022/10/06 00:17:55;;;;;;;19.82;10.95;;;;;;;10.21;100.00;100822.33;1776784;80;21033;-67
2022/10/06 00:20:22;;;;;;;12.90;8.60;;;;;;;10.21;100.00;100822.33;1776918;80;21033;-66
2022/10/06 00:22:49;;;;;;;14.80;8.93;;;;;;;10.19;100.00;100819.77;1776593;80;21088;-66
2022/10/06 00:25:21;;;;;;;19.05;8.40;;;;;;;10.16;100.00;100821.59;1776755;80;21164;-67
2022/10/06 00:27:50;;;;;;;15.65;8.43;;;;;;;10.15;100.00;100822.05;1776615;80;21013;-67
2022/10/06 00:30:20;;;;;;;13.65;8.20;;;;;;;10.12;100.00;100823.41;1776668;80;21073;-66
2022/10/06 00:33:02;;;;;;;19.10;8.28;;;;;;;10.13;100.00;100832.20;1776610;80;21042;-67
2022/10/06 00:35:32;;;;;;;15.75;8.55;;;;;;;10.10;100.00;100827.88;1777151;80;21048;-68
2022/10/06 00:38:00;;;;;;;15.63;8.35;;;;;;;10.08;100.00;100829.68;1776750;80;21197;-66
2022/10/06 00:40:26;;;;;;;14.28;7.62;;;;;;;10.03;100.00;100823.20;1776491;80;21026;-67
2022/10/06 00:43:00;;;;;;;20.68;8.68;;;;;;;10.01;100.00;100829.41;1776619;80;21072;-67
2022/10/06 00:45:36;;;;;;;14.28;8.03;;;;;;;9.97;100.00;100819.39;1776614;80;20985;-68
2022/10/06 00:48:08;;;;;;;18.25;8.90;;;;;;;9.94;100.00;100819.91;1776937;80;20998;-67
2022/10/06 00:50:36;;;;;;;16.60;8.65;;;;;;;9.87;100.00;100817.44;1776744;80;21121;-66
2022/10/06 00:53:03;;;;;;;13.32;8.13;;;;;;;9.82;100.00;100824.58;1776360;80;21041;-67
2022/10/06 00:55:30;;;;;;;14.15;7.83;;;;;;;9.75;100.00;100813.75;1776497;80;21084;-66
2022/10/06 00:57:59;;;;;;;15.70;8.63;;;;;;;9.71;100.00;100810.80;1776561;80;21083;-67
2022/10/06 01:00:26;;;;;;;18.65;7.97;;;;;;;9.66;100.00;100808.27;1776526;80;21076;-66
2022/10/06 01:02:57;;;;;;;14.70;8.03;;;;;;;9.62;100.00;100806.60;1776423;80;21250;-66
2022/10/06 01:05:31;;;;;;;16.12;8.30;;;;;;;9.58;100.00;100808.02;1771716;80;20994;-66
2022/10/06 01:07:59;;;;;;;21.93;8.53;;;;;;;9.55;100.00;100802.84;1749557;81;20990;-67
2022/10/06 01:10:26;;;;;;;13.75;8.25;;;;;;;9.52;100.00;100805.52;1770833;81;21009;-66
2022/10/06 01:12:54;;;;;;;14.25;7.42;;;;;;;9.50;100.00;100811.25;1770885;80;21568;-66
2022/10/06 01:18:26;;;;;;;13.68;7.72;;;;;;;9.29;100.00;100805.55;1796845;79;28162;-66
2022/10/06 01:21:05;;;;;;;18.85;7.95;;;;;;;9.23;100.00;100801.75;1756533;80;21053;-66
2022/10/06 01:23:33;;;;;;;14.68;7.65;;;;;;;9.16;100.00;100802.78;1756736;81;21161;-67
2022/10/06 01:26:02;;;;;;;14.25;7.55;;;;;;;9.06;100.00;100798.59;1756493;81;20907;-68
2022/10/06 01:28:29;;;;;;;16.05;7.80;;;;;;;8.98;100.00;100800.93;1756475;81;21440;-66
2022/10/06 01:31:00;;;;;;;16.02;7.47;;;;;;;8.93;100.00;100803.24;1756377;81;21039;-67
2022/10/06 01:33:28;;;;;;;14.50;8.03;;;;;;;8.87;100.00;100802.89;1756293;81;21092;-66
2022/10/06 01:35:56;;;;;;;18.30;8.18;;;;;;;8.86;100.00;100805.12;1756548;81;21095;-67
2022/10/06 01:38:23;;;;;;;18.23;8.08;;;;;;;8.82;100.00;100810.00;1756408;81;21053;-67
2022/10/06 01:40:53;;;;;;;17.20;7.97;;;;;;;8.77;100.00;100805.30;1722791;83;21608;-67
2022/10/06 01:43:20;;;;;;;21.25;8.03;;;;;;;8.73;100.00;100810.17;1722897;83;21108;-67
2022/10/06 01:45:54;;;;;;;15.60;8.28;;;;;;;8.66;100.00;100802.00;1715926;83;21020;-66
2022/10/06 01:48:21;;;;;;;13.62;7.78;;;;;;;8.60;100.00;100798.59;1720293;83;21881;-67
2022/10/06 01:50:48;;;;;;;18.07;9.75;;;;;;;8.56;100.00;100811.36;1720156;83;21533;-67
2022/10/06 01:53:16;;;;;;;14.43;7.80;;;;;;;8.53;100.00;100810.08;1720041;83;21081;-67
2022/10/06 01:55:42;;;;;;;15.53;8.00;;;;;;;8.49;100.00;100805.80;1720341;83;21053;-66
2022/10/06 01:58:11;;;;;;;15.03;7.53;;;;;;;8.45;100.00;100805.42;1719960;83;21079;-66
2022/10/06 02:00:38;;;;;;;12.93;7.33;;;;;;;8.40;100.00;100796.31;1720159;83;21537;-66
2022/10/06 02:03:06;;;;;;;16.80;8.33;;;;;;;8.37;100.00;100802.02;1719999;83;21537;-67
2022/10/06 02:05:34;;;;;;;13.18;8.10;;;;;;;8.29;100.00;100799.98;1720020;83;21101;-66
2022/10/06 02:08:01;;;;;;;13.13;7.72;;;;;;;8.23;100.00;100802.70;1720313;83;21036;-67
2022/10/06 02:10:29;;;;;;;19.23;7.90;;;;;;;8.16;100.00;100804.56;1720169;83;21104;-66
2022/10/06 02:12:57;;;;;;;20.52;8.20;;;;;;;8.13;100.00;100799.37;1708952;83;21680;-66
2022/10/06 02:15:25;;;;;;;20.27;9.43;;;;;;;8.12;100.00;100799.83;1707525;84;21044;-67
2022/10/06 02:17:53;;;;;;;17.65;8.98;;;;;;;8.08;100.00;100798.14;1699162;83;21100;-66
2022/10/06 02:20:20;;;;;;;18.17;9.78;;;;;;;8.06;100.00;100803.84;1694806;84;21963;-68
2022/10/06 02:22:46;;;;;;;15.32;9.68;;;;;;;8.02;100.00;100798.67;1694839;84;21137;-65
2022/10/06 02:25:16;;;;;;;23.22;8.18;;;;;;;7.99;100.00;100807.46;1694686;84;21870;-67
2022/10/06 02:27:43;;;;;;;15.18;8.45;;;;;;;7.94;100.00;100798.80;1694771;84;21105;-66
2022/10/06 02:30:13;;;;;;;14.33;8.30;;;;;;;7.91;100.00;100801.45;1694472;84;22186;-67
2022/10/06 02:32:41;;;;;;;13.32;7.20;;;;;;;7.90;100.00;100804.98;1694293;84;21164;-66
2022/10/06 02:35:11;;;;;;;22.00;8.05;;;;;;;7.93;100.00;100810.17;1694283;84;21042;-69
2022/10/06 02:37:39;;;;;;;15.75;7.97;;;;;;;7.93;100.00;100802.30;1694245;84;22148;-67
2022/10/06 02:40:08;;;;;;;13.95;8.30;;;;;;;7.90;100.00;100804.98;1694375;84;21073;-67
2022/10/06 02:42:36;;;;;;;25.40;8.38;;;;;;;7.90;100.00;100808.91;1694305;84;21050;-67
2022/10/06 02:45:08;;;;;;;14.20;7.92;;;;;;;7.85;100.00;100806.81;1677355;84;21026;-67
2022/10/06 02:47:35;;;;;;;12.35;7.83;;;;;;;7.81;100.00;100805.98;1666698;86;21136;-66
2022/10/06 02:50:04;;;;;;;15.35;7.92;;;;;;;7.78;100.00;100804.27;1666364;86;21941;-67
2022/10/06 02:52:35;;;;;;;16.90;8.65;;;;;;;7.71;100.00;100801.32;1666486;86;21121;-66
2022/10/06 02:55:03;;;;;;;20.07;9.63;;;;;;;7.67;100.00;100807.94;1666265;86;21038;-67
2022/10/06 02:57:30;;;;;;;15.18;9.00;;;;;;;7.60;100.00;100809.78;1666416;86;21080;-66
2022/10/06 02:59:57;;;;;;;18.52;8.75;;;;;;;7.56;100.00;100808.08;1666378;86;21546;-66
2022/10/06 03:02:24;;;;;;;15.60;8.33;;;;;;;7.52;100.00;100811.62;1694132;84;21993;-66
2022/10/06 03:04:50;;;;;;;17.17;9.70;;;;;;;7.49;100.00;100805.98;1694109;84;21161;-67
2022/10/06 03:07:17;;;;;;;16.55;9.60;;;;;;;7.45;100.00;100807.36;1694199;84;21198;-66
2022/10/06 03:09:46;;;;;;;18.20;10.70;;;;;;;7.42;100.00;100806.09;1694174;84;21065;-66
2022/10/06 03:12:13;;;;;;;24.02;12.03;;;;;;;7.40;100.00;100803.94;1694030;84;21225;-68
2022/10/06 03:14:41;;;;;;;21.40;10.72;;;;;;;7.39;100.00;100800.45;1694077;84;21402;-67
2022/10/06 03:17:10;;;;;;;20.05;11.68;;;;;;;7.39;100.00;100803.53;1693975;83;21137;-66
2022/10/06 03:19:39;;;;;;;23.20;12.70;;;;;;;7.38;100.00;100797.84;1693997;84;21109;-67
2022/10/06 03:22:05;;;;;;;20.32;11.40;;;;;;;7.35;100.00;100795.69;1694271;84;21056;-67
2022/10/06 03:24:38;;;;;;;18.32;10.05;;;;;;;7.35;100.00;100798.30;1693806;84;21156;-67
2022/10/06 03:27:05;;;;;;;16.15;10.18;;;;;;;7.35;100.00;100797.00;1693888;84;21145;-67
2022/10/06 03:29:32;;;;;;;22.48;9.93;;;;;;;7.38;100.00;100801.78;1694067;84;21097;-67
2022/10/06 03:32:00;;;;;;;19.45;9.65;;;;;;;7.41;100.00;100798.69;1693902;84;21133;-67
2022/10/06 03:34:27;;;;;;;20.75;10.88;;;;;;;7.40;100.00;100785.59;1694272;84;21706;-69
2022/10/06 03:36:54;;;;;;;31.77;18.40;;;;;;;7.41;100.00;100784.69;1694036;84;21630;-67
2022/10/06 03:39:22;;;;;;;39.42;23.20;;;;;;;7.45;100.00;100786.39;1694193;84;21069;-67
2022/10/06 03:41:50;;;;;;;33.60;18.98;;;;;;;7.50;100.00;100791.12;1694112;84;21061;-66
2022/10/06 03:44:21;;;;;;;36.95;19.80;;;;;;;7.53;100.00;100793.27;1656366;85;21089;-68
2022/10/06 03:46:48;;;;;;;26.82;14.65;;;;;;;7.57;100.00;100801.97;1666319;86;21673;-67
2022/10/06 03:49:14;;;;;;;25.85;14.63;;;;;;;7.59;100.00;100805.41;1666490;86;21160;-66
2022/10/06 03:51:42;;;;;;;21.35;13.98;;;;;;;7.60;100.00;100804.54;1666277;86;21137;-67
2022/10/06 03:54:11;;;;;;;24.15;13.03;;;;;;;7.62;100.00;100808.01;1665805;86;21085;-69
2022/10/06 03:56:40;;;;;;;20.75;11.68;;;;;;;7.64;100.00;100806.23;1666253;86;21063;-66
2022/10/06 03:59:09;;;;;;;14.00;9.63;;;;;;;7.64;100.00;100804.92;1666055;86;21077;-68
2022/10/06 04:01:39;;;;;;;17.62;10.38;;;;;;;7.65;100.00;100802.71;1637635;86;21073;-69
2022/10/06 04:04:08;;;;;;;16.87;10.50;;;;;;;7.62;100.00;100802.77;1666160;86;21752;-67
2022/10/06 04:06:40;;;;;;;20.60;9.83;;;;;;;7.64;100.00;100807.97;1666191;86;21145;-66
2022/10/06 04:09:12;;;;;;;13.95;8.90;;;;;;;7.63;100.00;100807.11;1666490;86;21053;-66
2022/10/06 04:11:40;;;;;;;17.55;8.83;;;;;;;7.63;100.00;100807.11;1666380;86;21066;-68
2022/10/06 04:14:10;;;;;;;16.90;9.98;;;;;;;7.63;100.00;100817.59;1666200;86;21046;-67
2022/10/06 04:16:42;;;;;;;16.87;9.90;;;;;;;7.66;100.00;100814.95;1666258;86;21080;-67
2022/10/06 04:19:10;;;;;;;18.07;10.32;;;;;;;7.66;100.00;100809.70;1638493;86;21112;-66
2022/10/06 04:21:43;;;;;;;17.27;9.63;;;;;;;7.68;100.00;100822.77;1673274;85;22179;-67
2022/10/06 04:24:12;;;;;;;21.60;10.28;;;;;;;7.67;100.00;100820.59;1663822;86;21065;-68
2022/10/06 04:26:44;;;;;;;20.43;9.77;;;;;;;7.67;100.00;100821.05;1648966;87;21614;-68
2022/10/06 04:29:12;;;;;;;18.37;9.98;;;;;;;7.65;100.00;100817.13;1645523;87;21394;-68
2022/10/06 04:31:39;;;;;;;17.60;9.88;;;;;;;7.63;100.00;100821.52;1664029;86;21599;-68
2022/10/06 04:34:09;;;;;;;17.05;8.65;;;;;;;7.63;100.00;100827.22;1672855;85;21545;-66
2022/10/06 04:36:39;;;;;;;15.25;8.60;;;;;;;7.62;100.00;100826.36;1621715;87;21148;-69
2022/10/06 04:39:09;;;;;;;15.13;8.28;;;;;;;7.61;100.00;100819.81;1646132;87;21088;-68
2022/10/06 04:41:38;;;;;;;17.30;8.45;;;;;;;7.61;100.00;100823.30;1709644;83;21231;-67
2022/10/06 04:44:05;;;;;;;21.42;9.73;;;;;;;7.60;100.00;100822.89;1709747;83;21550;-69
2022/10/06 04:46:32;;;;;;;18.00;9.15;;;;;;;7.62;100.00;100822.88;1709652;83;21057;-67
2022/10/06 04:48:59;;;;;;;19.35;9.85;;;;;;;7.63;100.00;100819.35;1709742;83;21085;-67
2022/10/06 04:51:28;;;;;;;25.60;10.30;;;;;;;7.69;100.00;100820.14;1709859;83;21105;-66
2022/10/06 04:53:57;;;;;;;20.80;10.82;;;;;;;7.99;100.00;100823.20;1709843;83;21944;-68
2022/10/06 04:56:28;;;;;;;17.37;9.78;;;;;;;8.56;100.00;100818.38;1709685;83;21057;-66
2022/10/06 04:58:56;;;;;;;17.92;9.85;;;;;;;8.94;100.00;100824.20;1683457;83;21605;-67
2022/10/06 05:01:32;;;;;;;15.10;8.35;;;;;;;9.12;100.00;100820.81;1683503;83;21510;-69
2022/10/06 05:04:01;;;;;;;18.80;8.78;;;;;;;9.18;100.00;100824.65;1709786;83;21049;-67
2022/10/06 05:06:36;;;;;;;15.25;9.73;;;;;;;9.42;100.00;100821.48;1709959;83;21235;-68
2022/10/06 05:09:12;;;;;;;15.10;7.75;;;;;;;9.97;100.00;100818.53;1709756;83;21053;-68
2022/10/06 05:11:42;;;;;;;12.63;6.90;;;;;;;10.70;100.00;100819.82;1709709;83;21128;-66
2022/10/06 05:14:10;;;;;;;10.30;6.42;;;;;;;11.52;100.00;100820.55;1710607;83;21117;-68
2022/10/06 05:16:39;;;;;;;11.93;6.35;;;;;;;12.27;100.00;100826.61;1709890;83;21490;-68
2022/10/06 05:19:08;;;;;;;14.28;6.67;;;;;;;13.09;100.00;100822.03;1716347;83;21041;-67
2022/10/06 05:21:37;;;;;;;11.20;6.25;;;;;;;13.83;100.00;100819.27;1719668;83;21033;-68
2022/10/06 05:24:06;;;;;;;10.20;5.42;;;;;;;14.52;100.00;100816.91;1719010;83;21545;-68
2022/10/06 05:26:35;;;;;;;12.15;6.05;;;;;;;15.06;100.00;100814.13;1718543;83;21105;-69
2022/10/06 05:29:03;;;;;;;14.80;5.87;;;;;;;15.50;100.00;100817.86;1718835;83;21605;-69
2022/10/06 05:31:33;;;;;;;11.40;5.72;;;;;;;15.97;100.00;100809.95;1720980;82;21563;-68
2022/10/06 05:34:02;;;;;;;21.07;6.78;;;;;;;16.46;100.00;100812.34;1748135;82;21018;-68
2022/10/06 05:36:32;;;;;;;12.68;5.50;;;;;;;16.97;100.00;100815.08;1748766;82;21628;-69
2022/10/06 05:38:59;;;;;;;;;;;;;;;17.50;99.53;100819.31;1750852;82;21041;-68
2022/10/06 05:41:30;;;;;;;9.83;4.60;;;;;;;18.02;95.76;100816.91;1748871;82;20186;-68
2022/10/06 05:43:59;;;;;;;12.00;4.37;;;;;;;18.49;92.73;100811.94;1748462;82;21139;-69
2022/10/06 05:46:28;;;;;;;7.53;3.95;;;;;;;18.88;68.70;100818.53;1720838;82;21061;-67
2022/10/06 05:48:59;;;;;;;7.60;3.92;;;;;;;19.22;65.88;100808.45;1748247;82;21074;-70
2022/10/06 05:51:30;;;;;;;10.32;4.42;;;;;;;19.49;62.40;100808.54;1748604;82;21041;-68
2022/10/06 05:54:00;;;;;;;9.28;3.75;;;;;;;19.71;61.70;100812.05;1748455;82;21093;-70
2022/10/06 05:56:30;;;;;;;11.60;3.17;;;;;;;19.90;60.13;100809.06;1748312;82;21292;-68
2022/10/06 05:58:57;;;;;;;6.28;3.47;;;;;;;20.15;57.52;100816.30;1748425;82;21153;-69
2022/10/06 06:01:30;;;;;;;7.28;3.25;;;;;;;20.20;56.51;100820.89;1748048;82;21104;-70
2022/10/06 06:04:03;;;;;;;9.53;3.40;;;;;;;20.23;56.34;100818.00;1748498;82;21001;-69
2022/10/06 06:06:37;;;;;;;6.53;3.20;;;;;;;19.90;56.16;100815.26;1748227;82;21053;-69
2022/10/06 06:09:09;;;;;;;6.58;3.10;;;;;;;19.32;56.90;100814.92;1748160;82;21085;-68
2022/10/06 06:11:45;;;;;;;8.98;3.67;;;;;;;18.80;57.97;100818.16;1748152;82;21045;-69
2022/10/06 06:14:16;;;;;;;11.05;3.90;;;;;;;18.50;59.74;100823.48;1748066;82;21297;-68
2022/10/06 06:16:43;;;;;;;5.90;4.00;;;;;;;18.33;60.42;100827.13;1748426;82;21077;-70
2022/10/06 06:19:12;;;;;;;6.62;3.37;;;;;;;18.28;60.96;100829.20;1739557;81;21109;-69
2022/10/06 06:21:41;;;;;;;10.72;3.67;;;;;;;18.29;60.68;100830.91;1734649;82;21878;-68
2022/10/06 06:24:09;;;;;;;9.93;3.52;;;;;;;18.35;60.58;100835.89;1734229;82;21163;-68
2022/10/06 06:26:36;;;;;;;7.30;4.03;;;;;;;18.36;59.76;100837.63;1734497;82;21089;-68
2022/10/06 06:29:04;;;;;;;5.45;3.33;;;;;;;18.44;59.97;100838.88;1734159;82;21069;-69
2022/10/06 06:31:35;;;;;;;8.75;3.70;;;;;;;18.51;59.30;100835.38;1734142;82;21106;-67
2022/10/06 06:34:03;;;;;;;9.63;3.60;;;;;;;18.98;59.44;100835.72;1734946;82;21194;-69
2022/10/06 06:36:39;;;;;;;;;;;;;;;19.47;56.12;100835.34;1737149;82;21022;-68
2022/10/06 06:39:10;;;;;;;8.20;3.60;;;;;;;19.86;55.77;100838.28;1734428;81;20213;-68
2022/10/06 06:41:47;;;;;;;12.73;3.72;;;;;;;20.40;54.55;100832.06;1734505;82;21105;-70
2022/10/06 06:44:33;;;;;;;10.50;3.55;;;;;;;20.85;52.76;100825.92;1722695;82;21061;-67
2022/10/06 06:47:04;;;;;;;8.35;3.92;;;;;;;21.33;51.09;100822.11;1704519;83;21201;-69
2022/10/06 06:49:31;;;;;;;9.48;3.62;;;;;;;21.67;50.33;100820.58;1704865;84;21411;-68
2022/10/06 06:52:03;;;;;;;;;;;;;;;21.95;49.23;100819.90;1707478;83;21109;-69
2022/10/06 06:54:31;;;;;;;6.35;3.25;;;;;;;22.19;47.49;100818.55;1704854;84;20170;-67
2022/10/06 06:56:59;;;;;;;12.95;3.50;;;;;;;22.43;47.58;100812.32;1702889;83;21089;-69
2022/10/06 06:59:26;;;;;;;7.03;3.10;;;;;;;22.86;46.38;100816.59;1705043;84;21850;-68
2022/10/06 07:01:56;;;;;;;8.97;3.40;;;;;;;22.99;45.51;100812.51;1704999;84;21058;-66
2022/10/06 07:04:23;;;;;;;9.55;3.20;;;;;;;22.99;45.00;100817.38;1704885;84;21074;-68
2022/10/06 07:06:57;;;;;;;14.90;3.50;;;;;;;23.00;44.69;100818.23;1704991;84;22286;-66
2022/10/06 07:09:27;;;;;;;13.38;3.47;;;;;;;23.19;44.65;100811.80;1704904;84;21073;-69
2022/10/06 07:11:56;;;;;;;11.10;3.52;;;;;;;23.15;43.43;100813.00;1704797;84;21189;-67
2022/10/06 07:14:23;;;;;;;7.83;3.52;;;;;;;23.07;44.14;100810.05;1704811;84;21055;-68
2022/10/06 07:25:17;;;;;;;13.32;3.55;;;;;;;24.37;41.41;100808.02;1704693;84;21462;-69
2022/10/06 07:27:49;;;;;;;8.77;3.37;;;;;;;24.79;40.39;100812.10;1702125;83;21073;-69
2022/10/06 07:30:24;;;;;;;8.78;2.83;;;;;;;25.02;39.54;100812.80;1704820;84;21468;-69
2022/10/06 07:32:54;;;;;;;10.90;3.17;;;;;;;25.12;39.64;100806.98;1704259;84;21061;-68
2022/10/06 07:35:23;;;;;;;11.85;3.70;;;;;;;25.01;38.79;100808.91;1705094;84;21581;-69
2022/10/06 07:37:52;;;;;;;8.13;3.37;;;;;;;24.89;39.22;100799.56;1704724;84;21105;-69
2022/10/06 07:40:19;;;;;;;6.40;2.92;;;;;;;24.98;38.71;100799.73;1704935;84;21579;-68
2022/10/06 07:42:47;;;;;;;8.88;3.20;;;;;;;25.16;38.85;100794.08;1704942;84;21027;-69
2022/10/06 07:48:20;;;;;;;8.43;3.80;;;;;;;25.80;38.16;100797.44;1704691;84;21049;-69
2022/10/06 07:50:51;;;;;;;14.25;4.25;;;;;;;26.02;37.15;100791.83;1704404;84;21452;-69
2022/10/06 07:53:19;;;;;;;7.33;2.87;;;;;;;25.88;37.19;100794.91;1704498;83;21041;-69
2022/10/06 07:55:48;;;;;;;8.55;2.92;;;;;;;25.77;36.95;100796.34;1704339;83;21136;-71
2022/10/06 07:58:23;;;;;;;7.75;2.98;;;;;;;25.80;36.93;100789.34;1704678;84;21195;-69
2022/10/06 08:00:51;;;;;;;8.68;2.75;;;;;;;25.90;36.74;100787.53;1704942;84;21124;-70
2022/10/06 08:03:18;;;;;;;4.20;2.62;;;;;;;26.01;36.33;100782.01;1704892;84;21454;-68
2022/10/06 08:05:50;;;;;;;7.15;3.10;;;;;;;26.37;36.00;100780.95;1704568;84;21044;-69
2022/10/06 08:08:19;;;;;;;10.10;3.20;;;;;;;27.11;34.67;100776.69;1704364;84;21618;-67
2022/10/06 08:10:55;;;;;;;8.80;3.45;;;;;;;27.11;34.67;100776.69;1705071;84;21630;-69
2022/10/06 08:13:22;;;;;;;8.23;3.72;;;;;;;27.32;34.05;100785.95;1684164;84;21030;-70
2022/10/06 08:15:50;;;;;;;8.28;3.22;;;;;;;27.15;34.09;100774.05;1704914;84;21541;-67
2022/10/06 08:18:20;;;;;;;9.73;3.15;;;;;;;26.94;33.95;100784.58;1704964;84;21581;-68
2022/10/06 08:20:46;;;;;;;5.83;3.20;;;;;;;26.64;34.49;100789.70;1718103;83;21053;-69
2022/10/06 08:23:13;;;;;;;8.50;3.40;;;;;;;26.54;34.48;100781.59;1718450;83;21049;-69
2022/10/06 08:25:44;;;;;;;6.08;3.20;;;;;;;26.54;34.48;100781.59;1718498;83;21045;-67
2022/10/06 08:28:11;;;;;;;7.58;3.10;;;;;;;26.67;34.65;100777.75;1717471;83;21990;-69
2022/10/06 08:30:38;;;;;;;8.18;3.67;;;;;;;27.02;34.48;100778.42;1718375;83;21072;-69
2022/10/06 08:33:05;;;;;;;10.98;4.30;;;;;;;26.68;33.98;100769.98;1718318;83;21619;-69
2022/10/06 08:35:32;;;;;;;16.02;5.22;;;;;;;25.99;35.41;100775.90;1718358;83;21093;-70
2022/10/06 08:37:59;;;;;;;12.93;4.97;;;;;;;25.99;35.41;100775.90;1718273;83;21088;-70
2022/10/06 08:40:29;;;;;;;8.53;4.42;;;;;;;25.79;35.84;100768.74;1718316;83;21236;-69
2022/10/06 08:42:57;;;;;;;16.20;4.42;;;;;;;25.49;36.28;100763.31;1718208;83;21053;-70
2022/10/06 08:45:33;;;;;;;10.50;4.62;;;;;;;25.58;36.93;100755.36;1740412;82;21017;-70
2022/10/06 08:48:04;;;;;;;14.28;4.50;;;;;;;25.75;36.03;100759.59;1747951;82;21069;-70
2022/10/06 08:50:37;;;;;;;9.50;3.98;;;;;;;25.94;36.36;100759.28;1748150;82;21050;-69
2022/10/06 08:53:26;;;;;;;9.48;4.20;;;;;;;25.77;35.74;100762.63;1720710;82;21103;-69
2022/10/06 08:55:59;;;;;;;11.75;3.65;;;;;;;25.63;36.65;100753.97;1747894;81;21003;-69
2022/10/06 08:58:49;;;;;;;8.80;3.83;;;;;;;25.65;35.99;100758.73;1747695;82;22284;-69
2022/10/06 09:01:22;;;;;;;12.03;3.60;;;;;;;25.46;36.65;100755.98;1748061;82;21081;-71
2022/10/06 09:03:52;;;;;;;9.25;3.75;;;;;;;25.42;36.45;100761.28;1748023;82;21048;-68
2022/10/06 09:07:02;;;;;;;13.90;3.67;;;;;;;24.84;37.67;100765.41;1747911;82;21248;-71
2022/10/06 09:09:58;;;;;;;8.88;3.60;;;;;;;24.75;37.87;100768.05;1748082;82;21068;-68
2022/10/06 09:12:38;;;;;;;11.00;4.08;;;;;;;24.65;38.05;100762.62;1747914;81;21085;-70
2022/10/06 09:15:43;;;;;;;11.53;4.00;;;;;;;24.53;38.13;100763.69;1747923;82;21076;-69
2022/10/06 09:18:18;;;;;;;15.15;4.47;;;;;;;24.41;38.69;100761.48;1748109;82;21295;-70
2022/10/06 09:21:01;;;;;;;9.35;3.85;;;;;;;24.93;38.47;100758.87;1744462;81;22003;-68
2022/10/06 09:23:48;;;;;;;10.15;4.10;;;;;;;24.96;37.52;100758.59;1746989;82;21077;-70
2022/10/06 09:26:21;;;;;;;9.03;4.30;;;;;;;24.70;37.84;100765.77;1747809;82;21097;-69
2022/10/06 09:28:51;;;;;;;10.65;4.28;;;;;;;24.44;38.58;100763.44;1748025;82;21136;-68
2022/10/06 09:31:33;;;;;;;12.00;3.77;;;;;;;24.32;39.20;100768.53;1747891;82;21120;-69
2022/10/06 09:34:29;;;;;;;7.70;3.77;;;;;;;24.25;38.96;100763.31;1747835;82;21161;-70
2022/10/06 09:37:01;;;;;;;6.97;3.47;;;;;;;24.35;38.79;100760.19;1747985;81;21024;-69
2022/10/06 09:39:37;;;;;;;9.58;3.72;;;;;;;24.59;38.83;100759.09;1747812;82;21625;-70
2022/10/06 09:42:20;;;;;;;13.18;3.65;;;;;;;24.79;38.65;100760.92;1748078;82;21121;-69
2022/10/06 09:45:17;;;;;;;9.88;4.10;;;;;;;24.98;38.19;100762.01;1733592;82;21065;-69
2022/10/06 09:47:44;;;;;;;6.35;3.22;;;;;;;25.30;37.53;100754.64;1718623;83;21273;-68
2022/10/06 09:50:25;;;;;;;6.58;3.12;;;;;;;25.78;36.76;100760.30;1718303;83;21076;-68
2022/10/06 09:53:03;;;;;;;7.28;3.20;;;;;;;26.12;35.70;100759.44;1718694;83;21081;-69
2022/10/06 09:55:40;;;;;;;6.50;3.30;;;;;;;26.28;35.81;100760.22;1718347;83;21442;-70
2022/10/06 09:58:18;;;;;;;7.37;3.00;;;;;;;26.51;35.50;100758.90;1718358;83;21013;-70
2022/10/06 10:00:53;;;;;;;6.75;3.08;;;;;;;26.43;34.57;100761.45;1718467;83;21126;-70
2022/10/06 10:03:20;;;;;;;6.37;3.30;;;;;;;25.91;35.66;100760.92;1718251;83;21049;-68
2022/10/06 10:05:50;;;;;;;5.78;3.05;;;;;;;25.73;36.68;100758.87;1691749;83;21077;-69
2022/10/06 10:08:29;;;;;;;6.50;2.97;;;;;;;25.68;36.29;100760.30;1718772;83;21113;-68
2022/10/06 10:13:58;;;;;;;4.95;2.75;;;;;;;25.85;36.07;100757.40;1718433;83;21278;-68
2022/10/06 10:16:33;;;;;;;9.53;3.12;;;;;;;25.67;36.77;100756.72;1718503;83;21656;-69
2022/10/06 10:19:04;;;;;;;6.35;2.90;;;;;;;25.94;35.84;100743.09;1718442;83;21041;-67
2022/10/06 10:21:32;;;;;;;8.00;2.92;;;;;;;26.38;35.67;100750.25;1718303;83;21005;-67
2022/10/06 10:24:01;;;;;;;4.95;3.00;;;;;;;26.90;34.37;100754.78;1718469;83;21588;-69
2022/10/06 10:26:58;;;;;;;7.80;2.80;;;;;;;26.85;33.71;100747.62;1718577;83;21085;-68
2022/10/06 10:29:47;;;;;;;6.25;3.20;;;;;;;26.63;34.27;100750.67;1717655;83;21525;-68
2022/10/06 10:32:22;;;;;;;10.68;3.00;;;;;;;26.42;34.04;100750.31;1732888;82;21146;-69
2022/10/06 10:35:23;;;;;;;5.58;2.72;;;;;;;26.21;34.24;100742.89;1718431;83;21105;-69
2022/10/06 10:38:17;;;;;;;4.12;2.77;;;;;;;26.41;34.44;100740.52;1718483;83;21687;-69
2022/10/06 10:40:52;;;;;;;5.03;2.70;;;;;;;26.79;34.45;100731.98;1718448;83;21510;-69
2022/10/06 10:43:50;;;;;;;6.95;2.85;;;;;;;27.06;33.47;100730.33;1718279;83;21073;-70
2022/10/06 10:46:30;;;;;;;6.90;2.70;;;;;;;27.07;33.52;100732.02;1692949;83;21029;-69
2022/10/06 10:49:28;;;;;;;8.53;2.70;;;;;;;26.94;32.52;100731.00;1718663;83;21037;-71
2022/10/06 10:52:06;;;;;;;5.95;2.92;;;;;;;26.74;33.03;100726.19;1718489;83;21073;-70
2022/10/06 10:54:49;;;;;;;8.43;2.50;;;;;;;26.52;33.22;100732.23;1718566;83;21151;-70
2022/10/06 10:57:20;;;;;;;12.00;2.52;;;;;;;26.26;33.66;100728.45;1718007;83;21089;-69
2022/10/06 11:00:00;;;;;;;8.33;2.52;;;;;;;26.21;33.91;100724.00;1718872;83;21065;-68
2022/10/06 11:02:28;;;;;;;4.47;2.70;;;;;;;25.82;34.43;100723.97;1718367;83;22027;-69
2022/10/06 11:05:03;;;;;;;4.87;2.50;;;;;;;25.90;34.97;100724.13;1718186;83;21621;-68
2022/10/06 11:08:15;;;;;;;6.85;2.70;;;;;;;26.13;33.95;100725.53;1716603;83;20998;-70
2022/10/06 11:10:47;;;;;;;3.87;2.55;;;;;;;26.27;34.44;100716.64;1718323;83;21129;-69
2022/10/06 11:13:29;;;;;;;6.03;2.60;;;;;;;26.29;34.03;100721.41;1718310;83;21057;-68
2022/10/06 11:16:35;;;;;;;5.00;2.60;;;;;;;26.37;34.91;100714.80;1718100;82;21080;-69
2022/10/06 11:19:47;;;;;;;5.83;2.20;;;;;;;26.42;34.06;100716.56;1718436;83;21037;-70
2022/10/06 11:22:41;;;;;;;8.45;2.60;;;;;;;26.01;34.70;100711.84;1715068;83;21225;-71
2022/10/06 11:25:36;;;;;;;5.85;2.47;;;;;;;25.88;34.91;100709.45;1714979;83;21041;-70
2022/10/06 11:28:41;;;;;;;7.10;2.40;;;;;;;25.96;35.23;100711.43;1680688;83;21113;-69
2022/10/06 11:31:37;;;;;;;7.72;2.50;;;;;;;26.01;34.88;100710.49;1714734;83;21101;-69
2022/10/06 11:34:05;;;;;;;6.75;2.55;;;;;;;25.97;34.52;100698.27;1714669;83;21030;-70
2022/10/06 11:36:47;;;;;;;9.08;2.35;;;;;;;25.94;34.70;100698.06;1714604;82;21166;-68
2022/10/06 11:39:24;;;;;;;4.83;2.37;;;;;;;25.75;34.92;100696.20;1714686;83;21097;-68
2022/10/06 11:42:30;;;;;;;4.65;2.75;;;;;;;25.67;35.01;100702.78;1714626;83;21593;-68
2022/10/06 11:45:08;;;;;;;4.20;2.70;;;;;;;25.60;35.56;100700.29;1729503;82;21530;-69
2022/10/06 11:48:03;;;;;;;8.30;2.45;;;;;;;25.46;35.60;100707.44;1744405;82;21095;-69
2022/10/06 11:50:37;;;;;;;6.20;3.00;;;;;;;25.32;36.30;100702.80;1737157;82;21162;-69
2022/10/06 11:53:08;;;;;;;7.20;3.08;;;;;;;25.05;36.06;100699.84;1746267;81;21081;-69
2022/10/06 11:55:36;;;;;;;11.05;2.95;;;;;;;24.57;37.08;100699.14;1710938;83;21076;-70
2022/10/06 11:58:12;;;;;;;7.08;2.70;;;;;;;24.13;37.91;100707.32;1682009;85;21521;-70
2022/10/06 12:00:44;;;;;;;6.05;2.87;;;;;;;23.98;38.52;100712.18;1674370;85;21136;-67